sensor_id;sensor_type;location;lat;lon;timestamp;P1;durP1;ratioP1;P2;durP2;ratioP2
30553;SDS011;17335;50.720;7.452;2023-02-28T00:00:35;9.90;;;2.58;;
30553;SDS011;17335;50.720;7.452;2023-02-28T00:03:02;7.43;;;3.22;;
30553;SDS011;17335;50.720;7.452;2023-02-28T00:05:30;4.50;;;2.35;;
30553;SDS011;17335;50.720;7.452;2023-02-28T00:07:57;9.20;;;2.55;;
30553;SDS011;17335;50.720;7.452;2023-02-28T00:10:25;7.05;;;2.90;;
30553;SDS011;17335;50.720;7.452;2023-02-28T00:12:55;8.00;;;2.45;;
30553;SDS011;17335;50.720;7.452;2023-02-28T00:15:25;5.53;;;2.25;;
30553;SDS011;17335;50.720;7.452;2023-02-28T00:17:51;5.40;;;2.53;;
30553;SDS011;17335;50.720;7.452;2023-02-28T00:20:18;7.30;;;2.92;;
30553;SDS011;17335;50.720;7.452;2023-02-28T00:22:46;6.85;;;2.60;;
30553;SDS011;17335;50.720;7.452;2023-02-28T00:25:17;5.97;;;2.88;;
30553;SDS011;17335;50.720;7.452;2023-02-28T00:27:52;7.15;;;3.30;;
30553;SDS011;17335;50.720;7.452;2023-02-28T00:30:19;8.20;;;3.33;;
30553;SDS011;17335;50.720;7.452;2023-02-28T00:32:48;4.60;;;2.08;;
30553;SDS011;17335;50.720;7.452;2023-02-28T00:35:15;5.40;;;2.38;;
30553;SDS011;17335;50.720;7.452;2023-02-28T00:37:41;5.70;;;2.42;;
30553;SDS011;17335;50.720;7.452;2023-02-28T00:40:09;4.65;;;2.10;;
30553;SDS011;17335;50.720;7.452;2023-02-28T00:42:37;8.18;;;2.20;;
30553;SDS011;17335;50.720;7.452;2023-02-28T00:45:04;6.50;;;2.13;;
30553;SDS011;17335;50.720;7.452;2023-02-28T00:47:32;5.50;;;2.45;;
30553;SDS011;17335;50.720;7.452;2023-02-28T00:49:59;6.07;;;2.45;;
30553;SDS011;17335;50.720;7.452;2023-02-28T00:52:26;6.05;;;2.85;;
30553;SDS011;17335;50.720;7.452;2023-02-28T00:54:53;7.43;;;2.90;;
30553;SDS011;17335;50.720;7.452;2023-02-28T00:57:20;3.88;;;2.25;;
30553;SDS011;17335;50.720;7.452;2023-02-28T00:59:47;7.43;;;2.38;;
30553;SDS011;17335;50.720;7.452;2023-02-28T01:02:13;5.05;;;2.78;;
30553;SDS011;17335;50.720;7.452;2023-02-28T01:04:40;6.22;;;2.40;;
30553;SDS011;17335;50.720;7.452;2023-02-28T01:07:06;7.55;;;2.53;;
30553;SDS011;17335;50.720;7.452;2023-02-28T01:09:34;5.50;;;2.50;;
30553;SDS011;17335;50.720;7.452;2023-02-28T01:12:00;4.18;;;2.63;;
30553;SDS011;17335;50.720;7.452;2023-02-28T01:14:27;4.75;;;2.30;;
30553;SDS011;17335;50.720;7.452;2023-02-28T01:16:53;8.25;;;2.50;;
30553;SDS011;17335;50.720;7.452;2023-02-28T01:19:20;6.30;;;2.50;;
30553;SDS011;17335;50.720;7.452;2023-02-28T01:21:46;6.88;;;3.08;;
30553;SDS011;17335;50.720;7.452;2023-02-28T01:24:13;6.45;;;2.80;;
30553;SDS011;17335;50.720;7.452;2023-02-28T01:26:40;8.70;;;2.58;;
30553;SDS011;17335;50.720;7.452;2023-02-28T01:29:06;6.45;;;2.55;;
30553;SDS011;17335;50.720;7.452;2023-02-28T01:31:33;6.03;;;2.92;;
30553;SDS011;17335;50.720;7.452;2023-02-28T01:34:00;3.28;;;2.20;;
30553;SDS011;17335;50.720;7.452;2023-02-28T01:36:28;5.40;;;2.42;;
30553;SDS011;17335;50.720;7.452;2023-02-28T01:38:56;4.97;;;2.08;;
30553;SDS011;17335;50.720;7.452;2023-02-28T01:41:26;9.57;;;2.72;;
30553;SDS011;17335;50.720;7.452;2023-02-28T01:43:56;4.70;;;2.38;;
30553;SDS011;17335;50.720;7.452;2023-02-28T01:46:25;3.83;;;2.15;;
30553;SDS011;17335;50.720;7.452;2023-02-28T01:49:11;5.03;;;2.25;;
30553;SDS011;17335;50.720;7.452;2023-02-28T01:51:43;5.93;;;2.28;;
30553;SDS011;17335;50.720;7.452;2023-02-28T01:54:27;6.00;;;2.30;;
30553;SDS011;17335;50.720;7.452;2023-02-28T01:57:18;4.28;;;2.08;;
30553;SDS011;17335;50.720;7.452;2023-02-28T01:59:48;3.72;;;2.15;;
30553;SDS011;17335;50.720;7.452;2023-02-28T02:02:21;6.38;;;2.63;;
30553;SDS011;17335;50.720;7.452;2023-02-28T02:05:00;4.45;;;2.20;;
30553;SDS011;17335;50.720;7.452;2023-02-28T02:07:31;5.63;;;2.63;;
30553;SDS011;17335;50.720;7.452;2023-02-28T02:10:06;2.92;;;1.85;;
30553;SDS011;17335;50.720;7.452;2023-02-28T02:24:35;3.58;;;2.15;;
30553;SDS011;17335;50.720;7.452;2023-02-28T02:33:02;4.57;;;2.10;;
30553;SDS011;17335;50.720;7.452;2023-02-28T02:38:11;4.67;;;2.30;;
30553;SDS011;17335;50.720;7.452;2023-02-28T02:41:08;3.47;;;1.90;;
30553;SDS011;17335;50.720;7.452;2023-02-28T02:46:13;7.70;;;2.58;;
30553;SDS011;17335;50.720;7.452;2023-02-28T02:48:45;3.97;;;2.50;;
30553;SDS011;17335;50.720;7.452;2023-02-28T02:51:14;6.63;;;3.00;;
30553;SDS011;17335;50.720;7.452;2023-02-28T02:53:45;4.57;;;2.42;;
30553;SDS011;17335;50.720;7.452;2023-02-28T02:56:20;5.78;;;2.40;;
30553;SDS011;17335;50.720;7.452;2023-02-28T02:58:51;5.07;;;2.22;;
30553;SDS011;17335;50.720;7.452;2023-02-28T03:01:24;3.30;;;2.03;;
30553;SDS011;17335;50.720;7.452;2023-02-28T03:04:18;5.28;;;2.17;;
30553;SDS011;17335;50.720;7.452;2023-02-28T03:06:45;4.13;;;2.38;;
30553;SDS011;17335;50.720;7.452;2023-02-28T03:09:11;6.97;;;2.47;;
30553;SDS011;17335;50.720;7.452;2023-02-28T03:11:38;6.13;;;2.28;;
30553;SDS011;17335;50.720;7.452;2023-02-28T03:19:54;8.60;;;2.23;;
30553;SDS011;17335;50.720;7.452;2023-02-28T03:22:40;3.92;;;2.10;;
30553;SDS011;17335;50.720;7.452;2023-02-28T03:33:10;5.82;;;2.88;;
30553;SDS011;17335;50.720;7.452;2023-02-28T03:35:48;7.45;;;2.58;;
30553;SDS011;17335;50.720;7.452;2023-02-28T03:38:29;7.10;;;2.22;;
30553;SDS011;17335;50.720;7.452;2023-02-28T03:41:06;4.53;;;2.53;;
30553;SDS011;17335;50.720;7.452;2023-02-28T03:43:39;6.93;;;3.10;;
30553;SDS011;17335;50.720;7.452;2023-02-28T03:46:09;4.35;;;2.25;;
30553;SDS011;17335;50.720;7.452;2023-02-28T03:48:43;5.05;;;2.72;;
30553;SDS011;17335;50.720;7.452;2023-02-28T03:51:14;7.32;;;2.78;;
30553;SDS011;17335;50.720;7.452;2023-02-28T03:53:45;5.20;;;2.65;;
30553;SDS011;17335;50.720;7.452;2023-02-28T04:01:56;4.90;;;2.55;;
30553;SDS011;17335;50.720;7.452;2023-02-28T04:04:25;8.07;;;2.90;;
30553;SDS011;17335;50.720;7.452;2023-02-28T04:06:52;4.25;;;2.33;;
30553;SDS011;17335;50.720;7.452;2023-02-28T04:09:27;5.63;;;2.65;;
30553;SDS011;17335;50.720;7.452;2023-02-28T04:11:54;6.47;;;2.67;;
30553;SDS011;17335;50.720;7.452;2023-02-28T04:14:24;11.10;;;3.03;;
30553;SDS011;17335;50.720;7.452;2023-02-28T04:16:50;10.90;;;3.08;;
30553;SDS011;17335;50.720;7.452;2023-02-28T04:19:18;4.50;;;2.80;;
30553;SDS011;17335;50.720;7.452;2023-02-28T04:21:49;3.58;;;2.50;;
30553;SDS011;17335;50.720;7.452;2023-02-28T04:24:19;4.75;;;2.67;;
30553;SDS011;17335;50.720;7.452;2023-02-28T04:26:49;6.32;;;3.00;;
30553;SDS011;17335;50.720;7.452;2023-02-28T04:29:27;4.95;;;2.33;;
30553;SDS011;17335;50.720;7.452;2023-02-28T04:31:55;4.20;;;2.47;;
30553;SDS011;17335;50.720;7.452;2023-02-28T04:34:27;6.65;;;2.72;;
30553;SDS011;17335;50.720;7.452;2023-02-28T04:36:54;4.43;;;2.45;;
30553;SDS011;17335;50.720;7.452;2023-02-28T04:39:38;4.35;;;2.45;;
30553;SDS011;17335;50.720;7.452;2023-02-28T04:42:05;6.07;;;2.78;;
30553;SDS011;17335;50.720;7.452;2023-02-28T04:44:31;6.50;;;2.90;;
30553;SDS011;17335;50.720;7.452;2023-02-28T04:46:58;6.00;;;3.08;;
30553;SDS011;17335;50.720;7.452;2023-02-28T04:49:25;6.15;;;3.00;;
30553;SDS011;17335;50.720;7.452;2023-02-28T04:51:51;7.32;;;2.42;;
30553;SDS011;17335;50.720;7.452;2023-02-28T04:54:19;5.07;;;2.75;;
30553;SDS011;17335;50.720;7.452;2023-02-28T04:56:46;4.65;;;2.85;;
30553;SDS011;17335;50.720;7.452;2023-02-28T04:59:15;7.10;;;2.63;;
30553;SDS011;17335;50.720;7.452;2023-02-28T05:01:45;5.97;;;2.88;;
30553;SDS011;17335;50.720;7.452;2023-02-28T05:04:13;7.55;;;3.47;;
30553;SDS011;17335;50.720;7.452;2023-02-28T05:06:40;7.38;;;3.22;;
30553;SDS011;17335;50.720;7.452;2023-02-28T05:09:07;6.93;;;2.75;;
30553;SDS011;17335;50.720;7.452;2023-02-28T05:11:33;7.05;;;2.92;;
30553;SDS011;17335;50.720;7.452;2023-02-28T05:14:05;7.50;;;3.00;;
30553;SDS011;17335;50.720;7.452;2023-02-28T05:16:37;7.43;;;3.10;;
30553;SDS011;17335;50.720;7.452;2023-02-28T05:19:04;6.65;;;3.22;;
30553;SDS011;17335;50.720;7.452;2023-02-28T05:24:03;6.65;;;2.95;;
30553;SDS011;17335;50.720;7.452;2023-02-28T05:26:35;6.20;;;3.50;;
30553;SDS011;17335;50.720;7.452;2023-02-28T05:29:07;6.28;;;2.50;;
30553;SDS011;17335;50.720;7.452;2023-02-28T05:31:35;6.65;;;2.70;;
30553;SDS011;17335;50.720;7.452;2023-02-28T05:34:02;8.45;;;3.50;;
30553;SDS011;17335;50.720;7.452;2023-02-28T05:36:30;5.70;;;3.00;;
30553;SDS011;17335;50.720;7.452;2023-02-28T05:38:57;5.35;;;2.75;;
30553;SDS011;17335;50.720;7.452;2023-02-28T05:41:24;5.22;;;3.22;;
30553;SDS011;17335;50.720;7.452;2023-02-28T05:43:52;5.93;;;2.70;;
30553;SDS011;17335;50.720;7.452;2023-02-28T05:46:19;6.93;;;3.00;;
30553;SDS011;17335;50.720;7.452;2023-02-28T05:48:46;7.00;;;3.13;;
30553;SDS011;17335;50.720;7.452;2023-02-28T05:51:14;4.75;;;2.60;;
30553;SDS011;17335;50.720;7.452;2023-02-28T05:53:41;29.65;;;9.70;;
30553;SDS011;17335;50.720;7.452;2023-02-28T05:56:08;83.53;;;31.55;;
30553;SDS011;17335;50.720;7.452;2023-02-28T05:58:35;43.55;;;15.43;;
30553;SDS011;17335;50.720;7.452;2023-02-28T06:01:18;15.45;;;7.00;;
30553;SDS011;17335;50.720;7.452;2023-02-28T06:03:47;10.95;;;4.57;;
30553;SDS011;17335;50.720;7.452;2023-02-28T06:06:13;9.13;;;3.75;;
30553;SDS011;17335;50.720;7.452;2023-02-28T06:08:40;5.85;;;3.38;;
30553;SDS011;17335;50.720;7.452;2023-02-28T06:11:06;8.48;;;3.50;;
30553;SDS011;17335;50.720;7.452;2023-02-28T06:13:33;7.90;;;3.13;;
30553;SDS011;17335;50.720;7.452;2023-02-28T06:16:00;6.10;;;3.05;;
30553;SDS011;17335;50.720;7.452;2023-02-28T06:18:27;11.70;;;4.28;;
30553;SDS011;17335;50.720;7.452;2023-02-28T06:20:54;8.95;;;3.75;;
30553;SDS011;17335;50.720;7.452;2023-02-28T06:23:21;9.82;;;3.65;;
30553;SDS011;17335;50.720;7.452;2023-02-28T06:25:48;5.70;;;3.05;;
30553;SDS011;17335;50.720;7.452;2023-02-28T06:28:15;5.38;;;2.97;;
30553;SDS011;17335;50.720;7.452;2023-02-28T06:30:42;4.28;;;2.72;;
30553;SDS011;17335;50.720;7.452;2023-02-28T06:33:11;6.10;;;3.00;;
30553;SDS011;17335;50.720;7.452;2023-02-28T06:35:38;5.55;;;3.30;;
30553;SDS011;17335;50.720;7.452;2023-02-28T06:38:05;5.07;;;3.08;;
30553;SDS011;17335;50.720;7.452;2023-02-28T06:40:31;6.93;;;3.50;;
30553;SDS011;17335;50.720;7.452;2023-02-28T06:43:01;5.13;;;3.13;;
30553;SDS011;17335;50.720;7.452;2023-02-28T06:45:28;6.15;;;3.17;;
30553;SDS011;17335;50.720;7.452;2023-02-28T06:47:55;6.93;;;3.42;;
30553;SDS011;17335;50.720;7.452;2023-02-28T06:50:21;7.75;;;4.10;;
30553;SDS011;17335;50.720;7.452;2023-02-28T06:52:48;9.45;;;4.15;;
30553;SDS011;17335;50.720;7.452;2023-02-28T06:55:14;10.57;;;4.13;;
30553;SDS011;17335;50.720;7.452;2023-02-28T06:57:41;11.07;;;5.10;;
30553;SDS011;17335;50.720;7.452;2023-02-28T07:00:09;11.73;;;5.25;;
30553;SDS011;17335;50.720;7.452;2023-02-28T07:02:36;9.20;;;4.70;;
30553;SDS011;17335;50.720;7.452;2023-02-28T07:05:04;10.23;;;4.00;;
30553;SDS011;17335;50.720;7.452;2023-02-28T07:07:31;9.93;;;3.30;;
30553;SDS011;17335;50.720;7.452;2023-02-28T07:09:58;9.70;;;3.78;;
30553;SDS011;17335;50.720;7.452;2023-02-28T07:12:25;7.32;;;4.00;;
30553;SDS011;17335;50.720;7.452;2023-02-28T07:14:52;5.18;;;3.10;;
30553;SDS011;17335;50.720;7.452;2023-02-28T07:17:18;4.50;;;2.90;;
30553;SDS011;17335;50.720;7.452;2023-02-28T07:19:45;6.13;;;3.70;;
30553;SDS011;17335;50.720;7.452;2023-02-28T07:22:11;6.07;;;3.08;;
30553;SDS011;17335;50.720;7.452;2023-02-28T07:24:41;4.88;;;2.80;;
30553;SDS011;17335;50.720;7.452;2023-02-28T07:27:07;5.63;;;3.00;;
30553;SDS011;17335;50.720;7.452;2023-02-28T07:29:34;5.20;;;2.83;;
30553;SDS011;17335;50.720;7.452;2023-02-28T07:32:00;5.45;;;2.75;;
30553;SDS011;17335;50.720;7.452;2023-02-28T07:34:27;6.30;;;2.30;;
30553;SDS011;17335;50.720;7.452;2023-02-28T07:36:54;5.30;;;2.92;;
30553;SDS011;17335;50.720;7.452;2023-02-28T07:39:21;4.13;;;2.40;;
30553;SDS011;17335;50.720;7.452;2023-02-28T07:41:48;4.80;;;2.60;;
30553;SDS011;17335;50.720;7.452;2023-02-28T07:44:15;3.78;;;2.35;;
30553;SDS011;17335;50.720;7.452;2023-02-28T07:46:42;5.32;;;2.47;;
30553;SDS011;17335;50.720;7.452;2023-02-28T07:49:09;6.35;;;2.95;;
30553;SDS011;17335;50.720;7.452;2023-02-28T07:51:35;3.70;;;2.30;;
30553;SDS011;17335;50.720;7.452;2023-02-28T07:54:02;4.70;;;2.50;;
30553;SDS011;17335;50.720;7.452;2023-02-28T07:56:29;4.40;;;2.22;;
30553;SDS011;17335;50.720;7.452;2023-02-28T07:58:56;4.40;;;2.30;;
30553;SDS011;17335;50.720;7.452;2023-02-28T08:01:23;4.18;;;2.20;;
30553;SDS011;17335;50.720;7.452;2023-02-28T08:03:50;3.75;;;2.10;;
30553;SDS011;17335;50.720;7.452;2023-02-28T08:06:20;3.67;;;2.03;;
30553;SDS011;17335;50.720;7.452;2023-02-28T08:08:48;6.55;;;2.75;;
30553;SDS011;17335;50.720;7.452;2023-02-28T08:11:15;5.15;;;2.50;;
30553;SDS011;17335;50.720;7.452;2023-02-28T08:13:43;5.40;;;2.90;;
30553;SDS011;17335;50.720;7.452;2023-02-28T08:16:11;5.68;;;2.95;;
30553;SDS011;17335;50.720;7.452;2023-02-28T08:18:48;5.15;;;2.35;;
30553;SDS011;17335;50.720;7.452;2023-02-28T08:21:16;6.97;;;2.33;;
30553;SDS011;17335;50.720;7.452;2023-02-28T08:23:46;3.88;;;2.05;;
30553;SDS011;17335;50.720;7.452;2023-02-28T08:26:15;3.85;;;2.05;;
30553;SDS011;17335;50.720;7.452;2023-02-28T08:28:42;5.75;;;2.55;;
30553;SDS011;17335;50.720;7.452;2023-02-28T08:31:11;4.07;;;1.92;;
30553;SDS011;17335;50.720;7.452;2023-02-28T08:33:40;3.95;;;1.80;;
30553;SDS011;17335;50.720;7.452;2023-02-28T08:36:07;3.95;;;2.20;;
30553;SDS011;17335;50.720;7.452;2023-02-28T08:38:35;5.20;;;2.25;;
30553;SDS011;17335;50.720;7.452;2023-02-28T08:41:04;4.18;;;1.95;;
30553;SDS011;17335;50.720;7.452;2023-02-28T08:43:33;4.95;;;2.20;;
30553;SDS011;17335;50.720;7.452;2023-02-28T08:46:01;4.82;;;2.15;;
30553;SDS011;17335;50.720;7.452;2023-02-28T08:48:28;2.90;;;1.70;;
30553;SDS011;17335;50.720;7.452;2023-02-28T08:53:33;3.28;;;1.88;;
30553;SDS011;17335;50.720;7.452;2023-02-28T08:56:01;7.80;;;2.38;;
30553;SDS011;17335;50.720;7.452;2023-02-28T08:58:38;5.00;;;2.42;;
30553;SDS011;17335;50.720;7.452;2023-02-28T09:01:15;2.85;;;1.63;;
30553;SDS011;17335;50.720;7.452;2023-02-28T09:03:44;3.85;;;2.03;;
30553;SDS011;17335;50.720;7.452;2023-02-28T09:06:13;2.70;;;1.70;;
30553;SDS011;17335;50.720;7.452;2023-02-28T09:08:40;5.68;;;2.42;;
30553;SDS011;17335;50.720;7.452;2023-02-28T09:11:07;4.57;;;1.77;;
30553;SDS011;17335;50.720;7.452;2023-02-28T09:13:35;3.63;;;1.77;;
30553;SDS011;17335;50.720;7.452;2023-02-28T09:16:02;4.30;;;2.15;;
30553;SDS011;17335;50.720;7.452;2023-02-28T09:18:30;4.93;;;1.92;;
30553;SDS011;17335;50.720;7.452;2023-02-28T09:20:58;7.22;;;2.05;;
30553;SDS011;17335;50.720;7.452;2023-02-28T09:23:24;3.03;;;1.65;;
30553;SDS011;17335;50.720;7.452;2023-02-28T09:25:52;4.95;;;2.45;;
30553;SDS011;17335;50.720;7.452;2023-02-28T09:28:20;3.83;;;1.90;;
30553;SDS011;17335;50.720;7.452;2023-02-28T09:30:49;6.07;;;1.63;;
30553;SDS011;17335;50.720;7.452;2023-02-28T09:33:18;5.70;;;2.38;;
30553;SDS011;17335;50.720;7.452;2023-02-28T09:35:48;5.70;;;2.03;;
30553;SDS011;17335;50.720;7.452;2023-02-28T09:38:15;2.95;;;1.60;;
30553;SDS011;17335;50.720;7.452;2023-02-28T09:43:25;6.85;;;2.10;;
30553;SDS011;17335;50.720;7.452;2023-02-28T09:45:57;6.18;;;2.30;;
30553;SDS011;17335;50.720;7.452;2023-02-28T09:48:31;4.78;;;2.20;;
30553;SDS011;17335;50.720;7.452;2023-02-28T09:51:05;5.28;;;2.35;;
30553;SDS011;17335;50.720;7.452;2023-02-28T09:54:02;5.95;;;2.33;;
30553;SDS011;17335;50.720;7.452;2023-02-28T09:59:10;3.58;;;1.92;;
30553;SDS011;17335;50.720;7.452;2023-02-28T10:10:04;5.75;;;2.25;;
30553;SDS011;17335;50.720;7.452;2023-02-28T10:12:44;5.25;;;1.92;;
30553;SDS011;17335;50.720;7.452;2023-02-28T10:15:13;4.10;;;1.83;;
30553;SDS011;17335;50.720;7.452;2023-02-28T10:17:42;7.13;;;2.00;;
30553;SDS011;17335;50.720;7.452;2023-02-28T10:20:26;4.40;;;2.10;;
30553;SDS011;17335;50.720;7.452;2023-02-28T10:22:58;4.15;;;2.00;;
30553;SDS011;17335;50.720;7.452;2023-02-28T10:25:34;4.70;;;2.25;;
30553;SDS011;17335;50.720;7.452;2023-02-28T10:28:10;4.28;;;1.60;;
30553;SDS011;17335;50.720;7.452;2023-02-28T10:30:41;3.60;;;1.85;;
30553;SDS011;17335;50.720;7.452;2023-02-28T10:33:25;3.20;;;1.88;;
30553;SDS011;17335;50.720;7.452;2023-02-28T10:36:02;5.15;;;2.10;;
30553;SDS011;17335;50.720;7.452;2023-02-28T10:38:34;4.78;;;2.08;;
30553;SDS011;17335;50.720;7.452;2023-02-28T10:43:35;3.92;;;2.00;;
30553;SDS011;17335;50.720;7.452;2023-02-28T10:46:11;4.03;;;2.20;;
30553;SDS011;17335;50.720;7.452;2023-02-28T10:49:00;4.65;;;2.17;;
30553;SDS011;17335;50.720;7.452;2023-02-28T10:51:39;4.00;;;2.13;;
30553;SDS011;17335;50.720;7.452;2023-02-28T10:57:05;3.40;;;1.90;;
30553;SDS011;17335;50.720;7.452;2023-02-28T10:59:49;5.43;;;2.50;;
30553;SDS011;17335;50.720;7.452;2023-02-28T11:02:34;3.42;;;2.00;;
30553;SDS011;17335;50.720;7.452;2023-02-28T11:05:21;7.38;;;2.30;;
30553;SDS011;17335;50.720;7.452;2023-02-28T11:07:53;4.30;;;2.30;;
30553;SDS011;17335;50.720;7.452;2023-02-28T11:10:22;4.38;;;2.13;;
30553;SDS011;17335;50.720;7.452;2023-02-28T11:12:55;5.25;;;2.10;;
30553;SDS011;17335;50.720;7.452;2023-02-28T11:15:27;6.32;;;2.38;;
30553;SDS011;17335;50.720;7.452;2023-02-28T11:17:57;6.07;;;3.22;;
30553;SDS011;17335;50.720;7.452;2023-02-28T11:20:25;5.80;;;2.97;;
30553;SDS011;17335;50.720;7.452;2023-02-28T11:22:54;5.68;;;2.50;;
30553;SDS011;17335;50.720;7.452;2023-02-28T11:27:54;5.13;;;2.38;;
30553;SDS011;17335;50.720;7.452;2023-02-28T11:30:24;4.85;;;2.50;;
30553;SDS011;17335;50.720;7.452;2023-02-28T11:32:57;4.55;;;2.33;;
30553;SDS011;17335;50.720;7.452;2023-02-28T11:35:34;4.82;;;2.10;;
30553;SDS011;17335;50.720;7.452;2023-02-28T11:38:07;4.97;;;2.50;;
30553;SDS011;17335;50.720;7.452;2023-02-28T11:40:42;6.03;;;2.40;;
30553;SDS011;17335;50.720;7.452;2023-02-28T11:48:58;3.67;;;2.03;;
30553;SDS011;17335;50.720;7.452;2023-02-28T11:51:47;5.05;;;2.67;;
30553;SDS011;17335;50.720;7.452;2023-02-28T12:02:27;7.43;;;3.03;;
30553;SDS011;17335;50.720;7.452;2023-02-28T12:06:01;6.72;;;2.53;;
30553;SDS011;17335;50.720;7.452;2023-02-28T12:08:39;6.63;;;3.13;;
30553;SDS011;17335;50.720;7.452;2023-02-28T12:21:59;5.97;;;3.20;;
30553;SDS011;17335;50.720;7.452;2023-02-28T12:24:44;5.57;;;2.63;;
30553;SDS011;17335;50.720;7.452;2023-02-28T12:27:15;7.65;;;2.50;;
30553;SDS011;17335;50.720;7.452;2023-02-28T12:29:53;5.07;;;2.60;;
30553;SDS011;17335;50.720;7.452;2023-02-28T12:32:30;7.18;;;2.60;;
30553;SDS011;17335;50.720;7.452;2023-02-28T12:37:40;4.70;;;2.50;;
30553;SDS011;17335;50.720;7.452;2023-02-28T12:40:13;5.95;;;2.40;;
30553;SDS011;17335;50.720;7.452;2023-02-28T12:42:46;4.95;;;2.45;;
30553;SDS011;17335;50.720;7.452;2023-02-28T12:45:22;5.63;;;2.72;;
30553;SDS011;17335;50.720;7.452;2023-02-28T12:47:57;6.65;;;2.47;;
30553;SDS011;17335;50.720;7.452;2023-02-28T12:50:27;5.85;;;2.88;;
30553;SDS011;17335;50.720;7.452;2023-02-28T12:55:38;6.05;;;3.00;;
30553;SDS011;17335;50.720;7.452;2023-02-28T12:58:29;4.88;;;2.90;;
30553;SDS011;17335;50.720;7.452;2023-02-28T13:01:09;5.80;;;2.65;;
30553;SDS011;17335;50.720;7.452;2023-02-28T13:09:26;5.68;;;3.05;;
30553;SDS011;17335;50.720;7.452;2023-02-28T13:11:55;6.82;;;2.60;;
30553;SDS011;17335;50.720;7.452;2023-02-28T13:14:26;7.20;;;2.80;;
30553;SDS011;17335;50.720;7.452;2023-02-28T13:16:57;5.78;;;2.83;;
30553;SDS011;17335;50.720;7.452;2023-02-28T13:19:37;5.97;;;3.00;;
30553;SDS011;17335;50.720;7.452;2023-02-28T13:22:16;4.47;;;2.40;;
30553;SDS011;17335;50.720;7.452;2023-02-28T13:25:01;5.53;;;3.10;;
30553;SDS011;17335;50.720;7.452;2023-02-28T13:27:38;6.35;;;2.80;;
30553;SDS011;17335;50.720;7.452;2023-02-28T13:35:47;5.68;;;3.40;;
30553;SDS011;17335;50.720;7.452;2023-02-28T13:38:24;7.78;;;3.83;;
30553;SDS011;17335;50.720;7.452;2023-02-28T13:44:08;8.32;;;3.80;;
30553;SDS011;17335;50.720;7.452;2023-02-28T13:51:50;7.63;;;3.63;;
30553;SDS011;17335;50.720;7.452;2023-02-28T13:54:22;9.90;;;2.97;;
30553;SDS011;17335;50.720;7.452;2023-02-28T14:05:32;6.72;;;4.05;;
30553;SDS011;17335;50.720;7.452;2023-02-28T14:08:10;10.75;;;4.13;;
30553;SDS011;17335;50.720;7.452;2023-02-28T14:10:46;6.43;;;3.20;;
30553;SDS011;17335;50.720;7.452;2023-02-28T14:15:48;6.95;;;3.50;;
30553;SDS011;17335;50.720;7.452;2023-02-28T14:18:25;6.75;;;3.15;;
30553;SDS011;17335;50.720;7.452;2023-02-28T14:21:02;9.60;;;4.50;;
30553;SDS011;17335;50.720;7.452;2023-02-28T14:26:10;7.43;;;3.35;;
30553;SDS011;17335;50.720;7.452;2023-02-28T14:31:41;8.77;;;3.80;;
30553;SDS011;17335;50.720;7.452;2023-02-28T14:37:22;6.60;;;3.70;;
30553;SDS011;17335;50.720;7.452;2023-02-28T14:39:54;11.88;;;4.00;;
30553;SDS011;17335;50.720;7.452;2023-02-28T14:42:29;8.20;;;3.72;;
30553;SDS011;17335;50.720;7.452;2023-02-28T14:45:01;7.25;;;4.03;;
30553;SDS011;17335;50.720;7.452;2023-02-28T14:47:32;6.30;;;3.67;;
30553;SDS011;17335;50.720;7.452;2023-02-28T14:50:01;7.38;;;4.22;;
30553;SDS011;17335;50.720;7.452;2023-02-28T14:52:30;8.90;;;4.18;;
30553;SDS011;17335;50.720;7.452;2023-02-28T14:54:59;11.40;;;4.32;;
30553;SDS011;17335;50.720;7.452;2023-02-28T14:57:33;8.73;;;4.53;;
30553;SDS011;17335;50.720;7.452;2023-02-28T15:02:38;8.90;;;3.72;;
30553;SDS011;17335;50.720;7.452;2023-02-28T15:07:38;7.00;;;3.50;;
30553;SDS011;17335;50.720;7.452;2023-02-28T15:10:06;7.05;;;3.55;;
30553;SDS011;17335;50.720;7.452;2023-02-28T15:12:35;9.50;;;3.90;;
30553;SDS011;17335;50.720;7.452;2023-02-28T15:15:03;6.93;;;3.88;;
30553;SDS011;17335;50.720;7.452;2023-02-28T15:17:30;11.80;;;4.68;;
30553;SDS011;17335;50.720;7.452;2023-02-28T15:19:56;7.80;;;3.50;;
30553;SDS011;17335;50.720;7.452;2023-02-28T15:22:27;7.30;;;3.90;;
30553;SDS011;17335;50.720;7.452;2023-02-28T15:25:00;7.25;;;3.75;;
30553;SDS011;17335;50.720;7.452;2023-02-28T15:27:31;9.18;;;3.97;;
30553;SDS011;17335;50.720;7.452;2023-02-28T15:30:00;7.68;;;3.75;;
30553;SDS011;17335;50.720;7.452;2023-02-28T15:32:34;7.03;;;3.55;;
30553;SDS011;17335;50.720;7.452;2023-02-28T15:35:25;8.27;;;3.72;;
30553;SDS011;17335;50.720;7.452;2023-02-28T15:37:58;7.80;;;4.07;;
30553;SDS011;17335;50.720;7.452;2023-02-28T15:43:07;7.28;;;3.55;;
30553;SDS011;17335;50.720;7.452;2023-02-28T15:50:55;6.50;;;3.70;;
30553;SDS011;17335;50.720;7.452;2023-02-28T15:53:24;6.60;;;3.42;;
30553;SDS011;17335;50.720;7.452;2023-02-28T15:55:55;6.85;;;3.13;;
30553;SDS011;17335;50.720;7.452;2023-02-28T15:58:26;5.68;;;3.63;;
30553;SDS011;17335;50.720;7.452;2023-02-28T16:01:01;7.18;;;3.75;;
30553;SDS011;17335;50.720;7.452;2023-02-28T16:03:38;7.32;;;3.85;;
30553;SDS011;17335;50.720;7.452;2023-02-28T16:06:09;8.98;;;3.50;;
30553;SDS011;17335;50.720;7.452;2023-02-28T16:08:52;6.78;;;3.55;;
30553;SDS011;17335;50.720;7.452;2023-02-28T16:11:22;7.28;;;3.80;;
30553;SDS011;17335;50.720;7.452;2023-02-28T16:13:49;4.45;;;2.63;;
30553;SDS011;17335;50.720;7.452;2023-02-28T16:16:21;8.05;;;3.38;;
30553;SDS011;17335;50.720;7.452;2023-02-28T16:18:52;7.13;;;3.67;;
30553;SDS011;17335;50.720;7.452;2023-02-28T16:21:19;7.28;;;3.90;;
30553;SDS011;17335;50.720;7.452;2023-02-28T16:23:46;8.93;;;3.90;;
30553;SDS011;17335;50.720;7.452;2023-02-28T16:26:21;7.18;;;3.70;;
30553;SDS011;17335;50.720;7.452;2023-02-28T16:28:50;10.73;;;4.10;;
30553;SDS011;17335;50.720;7.452;2023-02-28T16:31:17;8.85;;;4.13;;
30553;SDS011;17335;50.720;7.452;2023-02-28T16:33:44;7.43;;;3.47;;
30553;SDS011;17335;50.720;7.452;2023-02-28T16:36:14;10.35;;;3.65;;
30553;SDS011;17335;50.720;7.452;2023-02-28T16:38:42;7.25;;;3.17;;
30553;SDS011;17335;50.720;7.452;2023-02-28T16:41:09;5.57;;;3.40;;
30553;SDS011;17335;50.720;7.452;2023-02-28T16:43:46;8.43;;;3.85;;
30553;SDS011;17335;50.720;7.452;2023-02-28T16:46:14;9.02;;;3.95;;
30553;SDS011;17335;50.720;7.452;2023-02-28T16:48:43;7.18;;;3.72;;
30553;SDS011;17335;50.720;7.452;2023-02-28T16:51:12;7.03;;;3.38;;
30553;SDS011;17335;50.720;7.452;2023-02-28T16:53:40;6.97;;;3.83;;
30553;SDS011;17335;50.720;7.452;2023-02-28T16:56:08;10.23;;;3.80;;
30553;SDS011;17335;50.720;7.452;2023-02-28T16:58:42;8.32;;;3.67;;
30553;SDS011;17335;50.720;7.452;2023-02-28T17:01:09;8.43;;;3.35;;
30553;SDS011;17335;50.720;7.452;2023-02-28T17:03:36;9.52;;;3.35;;
30553;SDS011;17335;50.720;7.452;2023-02-28T17:06:03;6.35;;;3.40;;
30553;SDS011;17335;50.720;7.452;2023-02-28T17:08:31;11.00;;;4.38;;
30553;SDS011;17335;50.720;7.452;2023-02-28T17:10:59;10.32;;;3.70;;
30553;SDS011;17335;50.720;7.452;2023-02-28T17:13:26;9.85;;;3.88;;
30553;SDS011;17335;50.720;7.452;2023-02-28T17:15:52;7.22;;;4.07;;
30553;SDS011;17335;50.720;7.452;2023-02-28T17:18:19;10.85;;;4.65;;
30553;SDS011;17335;50.720;7.452;2023-02-28T17:20:47;9.68;;;4.80;;
30553;SDS011;17335;50.720;7.452;2023-02-28T17:23:14;12.27;;;4.65;;
30553;SDS011;17335;50.720;7.452;2023-02-28T17:25:42;7.85;;;4.25;;
30553;SDS011;17335;50.720;7.452;2023-02-28T17:28:22;9.02;;;3.90;;
30553;SDS011;17335;50.720;7.452;2023-02-28T17:30:49;10.40;;;4.28;;
30553;SDS011;17335;50.720;7.452;2023-02-28T17:33:16;9.90;;;4.30;;
30553;SDS011;17335;50.720;7.452;2023-02-28T17:35:42;7.05;;;4.13;;
30553;SDS011;17335;50.720;7.452;2023-02-28T17:38:18;11.30;;;4.70;;